DLH326 ULMM-UUYH
Flight info
| Callsign | DLH326 |
|---|---|
| Flight time | N/A |
| Altitude | 35000 |
| Route | LOPRA2P LOPRA T822 SOTIS P35 UTUKA UTUKA3P |
| Aircraft | A346/H-SDE2E3FGHIJ3J4J5M1RWXY/LB1D1 |
Departure
| Time | 2026-04-27 16:03 |
|---|---|
| Airport | Emperor Nicholas II Murmansk Airport (ULMM) |
Arrival
| Time | N/A |
|---|---|
| Airport | Ukhta Airport (UUYH) |
| Time | Latitude | Longitude | Altitude | Speed | Heading |
|---|---|---|---|---|---|
| 2026-04-27 15:32 | 68.78403 | 32.75798 | 262 ft | 0 kts | 326° |
| 2026-04-27 15:52 | 68.78404 | 32.75796 | 262 ft | 0 kts | 326° |
| 2026-04-27 15:53 | 68.78404 | 32.75795 | 262 ft | 0 kts | 326° |
| 2026-04-27 15:54 | 68.78414 | 32.75777 | 262 ft | 3 kts | 326° |
| 2026-04-27 15:54 | 68.78419 | 32.75768 | 262 ft | 2 kts | 324° |
| 2026-04-27 15:54 | 68.78432 | 32.75731 | 262 ft | 3 kts | 303° |
| 2026-04-27 15:54 | 68.78436 | 32.75652 | 262 ft | 5 kts | 257° |
| 2026-04-27 15:55 | 68.78415 | 32.75542 | 262 ft | 8 kts | 240° |
| 2026-04-27 15:55 | 68.78397 | 32.75441 | 262 ft | 10 kts | 247° |
| 2026-04-27 15:55 | 68.78373 | 32.75305 | 262 ft | 0 kts | 240° |
| 2026-04-27 15:56 | 68.78357 | 32.75231 | 262 ft | 12 kts | 238° |
| 2026-04-27 15:56 | 68.78260 | 32.75036 | 264 ft | 24 kts | 182° |
| 2026-04-27 15:56 | 68.78086 | 32.75289 | 260 ft | 35 kts | 143° |
| 2026-04-27 15:56 | 68.77857 | 32.75721 | 262 ft | 44 kts | 146° |
| 2026-04-27 15:57 | 68.77599 | 32.76195 | 260 ft | 45 kts | 146° |
| 2026-04-27 15:57 | 68.77445 | 32.76669 | 261 ft | 31 kts | 96° |
| 2026-04-27 15:57 | 68.77401 | 32.77092 | 262 ft | 20 kts | 144° |
| 2026-04-27 15:57 | 68.77374 | 32.77121 | 262 ft | 0 kts | 172° |
| 2026-04-27 15:58 | 68.77366 | 32.77122 | 262 ft | 3 kts | 180° |
| 2026-04-27 15:58 | 68.77315 | 32.77060 | 262 ft | 14 kts | 222° |
| 2026-04-27 15:58 | 68.77291 | 32.76803 | 260 ft | 14 kts | 300° |
| 2026-04-27 15:58 | 68.77312 | 32.76742 | 261 ft | 0 kts | 320° |
| 2026-04-27 15:59 | 68.77313 | 32.76739 | 261 ft | 0 kts | 320° |
| 2026-04-27 16:00 | 68.77324 | 32.76714 | 261 ft | 15 kts | 321° |
| 2026-04-27 16:01 | 68.77561 | 32.76267 | 262 ft | 30 kts | 326° |
| 2026-04-27 16:01 | 68.77591 | 32.76212 | 261 ft | 5 kts | 326° |
| 2026-04-27 16:01 | 68.77531 | 32.76322 | 266 ft | 16 kts | 326° |
| 2026-04-27 16:01 | 68.77401 | 32.76559 | 262 ft | 27 kts | 326° |
| 2026-04-27 16:02 | 68.77319 | 32.76710 | 261 ft | 0 kts | 326° |
| 2026-04-27 16:02 | 68.77327 | 32.76695 | 261 ft | 12 kts | 326° |
| 2026-04-27 16:02 | 68.77586 | 32.76220 | 261 ft | 77 kts | 326° |
| 2026-04-27 16:03 | 68.78193 | 32.75097 | 263 ft | 130 kts | 326° |
| 2026-04-27 16:03 | 68.79054 | 32.73499 | 500 ft | 152 kts | 326° |
| 2026-04-27 16:03 | 68.79928 | 32.71879 | 1069 ft | 152 kts | 326° |
| 2026-04-27 16:03 | 68.80806 | 32.70220 | 1724 ft | 153 kts | 328° |
| 2026-04-27 16:04 | 68.81691 | 32.68549 | 2257 ft | 158 kts | 329° |
| 2026-04-27 16:04 | 68.82648 | 32.66757 | 2612 ft | 175 kts | 329° |
| 2026-04-27 16:04 | 68.83706 | 32.64777 | 2956 ft | 193 kts | 330° |
| 2026-04-27 16:04 | 68.84865 | 32.62614 | 3507 ft | 205 kts | 330° |
| 2026-04-27 16:05 | 68.86043 | 32.60375 | 4380 ft | 206 kts | 327° |
| 2026-04-27 16:05 | 68.86977 | 32.57214 | 5146 ft | 223 kts | 301° |
| 2026-04-27 16:05 | 68.87315 | 32.52864 | 5731 ft | 246 kts | 275° |
| 2026-04-27 16:05 | 68.86796 | 32.48048 | 6210 ft | 278 kts | 244° |
| 2026-04-27 16:06 | 68.85690 | 32.43509 | 7038 ft | 284 kts | 240° |
| 2026-04-27 16:06 | 68.84469 | 32.39123 | 7871 ft | 292 kts | 226° |
| 2026-04-27 16:06 | 68.82674 | 32.36506 | 8798 ft | 298 kts | 191° |
| 2026-04-27 16:06 | 68.80664 | 32.36813 | 9784 ft | 296 kts | 159° |
| 2026-04-27 16:07 | 68.78889 | 32.39639 | 10638 ft | 296 kts | 141° |
| 2026-04-27 16:07 | 68.77204 | 32.43080 | 11326 ft | 305 kts | 140° |
| 2026-04-27 16:07 | 68.75474 | 32.46568 | 12120 ft | 310 kts | 142° |
| 2026-04-27 16:07 | 68.73704 | 32.49995 | 13024 ft | 312 kts | 142° |
| 2026-04-27 16:08 | 68.71913 | 32.53377 | 13925 ft | 313 kts | 142° |
| 2026-04-27 16:08 | 68.70099 | 32.56759 | 14691 ft | 316 kts | 143° |
| 2026-04-27 16:08 | 68.68358 | 32.60445 | 15424 ft | 316 kts | 129° |
| 2026-04-27 16:08 | 68.67195 | 32.65585 | 16122 ft | 312 kts | 105° |
| 2026-04-27 16:09 | 68.66696 | 32.71384 | 16564 ft | 323 kts | 97° |
| 2026-04-27 16:09 | 68.65876 | 32.84196 | 17231 ft | 356 kts | 97° |
| 2026-04-27 16:09 | 68.65411 | 32.91040 | 17552 ft | 372 kts | 97° |
| 2026-04-27 16:10 | 68.64376 | 33.05540 | 18318 ft | 398 kts | 98° |
| 2026-04-27 16:10 | 68.62571 | 33.20149 | 19668 ft | 410 kts | 118° |
| 2026-04-27 16:11 | 68.60810 | 33.26383 | 20355 ft | 417 kts | 131° |
| 2026-04-27 16:11 | 68.56516 | 33.37316 | 21675 ft | 425 kts | 135° |
| 2026-04-27 16:12 | 68.52166 | 33.48459 | 22975 ft | 430 kts | 131° |
| 2026-04-27 16:12 | 68.50776 | 33.52333 | 23409 ft | 432 kts | 132° |
| 2026-04-27 16:12 | 68.46504 | 33.64060 | 24432 ft | 440 kts | 132° |
| 2026-04-27 16:13 | 68.44341 | 33.69984 | 24876 ft | 444 kts | 132° |
| 2026-04-27 16:13 | 68.39930 | 33.82007 | 25780 ft | 453 kts | 133° |
| 2026-04-27 16:13 | 68.37684 | 33.88102 | 26184 ft | 458 kts | 133° |
| 2026-04-27 16:14 | 68.33127 | 34.00411 | 27054 ft | 467 kts | 135° |
| 2026-04-27 16:14 | 68.28477 | 34.12874 | 27952 ft | 474 kts | 135° |
| 2026-04-27 16:15 | 68.23739 | 34.25489 | 28885 ft | 480 kts | 135° |
| 2026-04-27 16:15 | 68.19005 | 34.38089 | 30239 ft | 477 kts | 136° |
| 2026-04-27 16:16 | 68.14316 | 34.50550 | 31181 ft | 477 kts | 137° |
| 2026-04-27 16:16 | 68.09546 | 34.63084 | 32201 ft | 476 kts | 136° |
| 2026-04-27 16:17 | 68.04840 | 34.75405 | 33126 ft | 477 kts | 137° |
| 2026-04-27 16:17 | 68.00062 | 34.87807 | 33912 ft | 481 kts | 136° |
| 2026-04-27 16:18 | 67.95243 | 35.00262 | 34500 ft | 485 kts | 137° |
| 2026-04-27 16:18 | 67.90365 | 35.12801 | 34930 ft | 490 kts | 137° |
| 2026-04-27 16:19 | 67.85448 | 35.25354 | 34916 ft | 489 kts | 137° |
| 2026-04-27 16:20 | 67.77906 | 35.44433 | 34919 ft | 507 kts | 138° |
| 2026-04-27 16:20 | 67.75344 | 35.50869 | 34910 ft | 507 kts | 137° |
| 2026-04-27 16:21 | 67.67667 | 35.70086 | 34911 ft | 507 kts | 137° |
| 2026-04-27 16:22 | 67.57417 | 35.95452 | 34902 ft | 505 kts | 139° |
| 2026-04-27 16:22 | 67.49713 | 36.14275 | 34890 ft | 505 kts | 139° |
| 2026-04-27 16:23 | 67.41987 | 36.32992 | 34880 ft | 505 kts | 139° |
| 2026-04-27 16:24 | 67.36830 | 36.45384 | 34872 ft | 504 kts | 139° |
| 2026-04-27 16:25 | 67.26456 | 36.70101 | 34874 ft | 504 kts | 139° |
| 2026-04-27 16:26 | 67.16138 | 36.94382 | 34861 ft | 503 kts | 140° |
| 2026-04-27 16:27 | 67.05762 | 37.18526 | 34854 ft | 502 kts | 140° |
| 2026-04-27 16:28 | 66.92756 | 37.48351 | 34837 ft | 502 kts | 140° |
| 2026-04-27 16:29 | 66.79688 | 37.77851 | 34841 ft | 502 kts | 140° |
| 2026-04-27 16:30 | 66.69220 | 38.01228 | 34837 ft | 502 kts | 140° |
| 2026-04-27 16:31 | 66.56175 | 38.29968 | 34827 ft | 492 kts | 141° |
| 2026-04-27 16:32 | 66.48426 | 38.46815 | 34821 ft | 491 kts | 141° |
| 2026-04-27 16:33 | 66.40662 | 38.63560 | 34817 ft | 491 kts | 141° |
| 2026-04-27 16:33 | 66.35485 | 38.74654 | 34811 ft | 489 kts | 142° |
| 2026-04-27 16:34 | 66.30318 | 38.85655 | 34805 ft | 488 kts | 142° |
| 2026-04-27 16:34 | 66.25150 | 38.96590 | 34807 ft | 488 kts | 142° |
| 2026-04-27 16:35 | 66.20006 | 39.07413 | 34797 ft | 488 kts | 142° |
| 2026-04-27 16:36 | 66.12234 | 39.23652 | 34790 ft | 488 kts | 142° |
| 2026-04-27 16:36 | 66.07037 | 39.34361 | 34793 ft | 486 kts | 143° |
| 2026-04-27 16:37 | 66.01827 | 39.44978 | 34796 ft | 486 kts | 143° |
| 2026-04-27 16:37 | 65.96619 | 39.55532 | 34791 ft | 485 kts | 143° |
| 2026-04-27 16:38 | 65.91405 | 39.66062 | 34789 ft | 486 kts | 143° |
| 2026-04-27 16:38 | 65.86232 | 39.76706 | 34789 ft | 486 kts | 142° |
| 2026-04-27 16:39 | 65.81071 | 39.87292 | 34782 ft | 484 kts | 143° |
| 2026-04-27 16:39 | 65.75936 | 39.97921 | 34774 ft | 485 kts | 140° |
| 2026-04-27 16:40 | 65.71395 | 40.10090 | 34776 ft | 489 kts | 130° |
| 2026-04-27 16:40 | 65.67746 | 40.24097 | 34788 ft | 493 kts | 120° |
| 2026-04-27 16:41 | 65.65129 | 40.39572 | 34769 ft | 498 kts | 110° |
| 2026-04-27 16:41 | 65.63189 | 40.55690 | 34764 ft | 497 kts | 109° |
| 2026-04-27 16:42 | 65.61275 | 40.71786 | 34771 ft | 497 kts | 109° |
| 2026-04-27 16:42 | 65.59327 | 40.87861 | 34762 ft | 497 kts | 109° |
| 2026-04-27 16:43 | 65.57359 | 41.03867 | 34757 ft | 497 kts | 110° |
| 2026-04-27 16:43 | 65.55371 | 41.19858 | 34745 ft | 497 kts | 110° |
| 2026-04-27 16:44 | 65.53366 | 41.35823 | 34745 ft | 495 kts | 110° |
| 2026-04-27 16:44 | 65.51351 | 41.51693 | 34742 ft | 494 kts | 110° |
| 2026-04-27 16:45 | 65.49305 | 41.67644 | 34741 ft | 494 kts | 110° |
| 2026-04-27 16:45 | 65.47256 | 41.83458 | 34741 ft | 494 kts | 110° |
| 2026-04-27 16:46 | 65.45191 | 41.99228 | 34733 ft | 494 kts | 110° |
| 2026-04-27 16:46 | 65.43082 | 42.14936 | 34707 ft | 493 kts | 111° |
| 2026-04-27 16:47 | 65.40925 | 42.30575 | 34732 ft | 492 kts | 111° |
| 2026-04-27 16:47 | 65.38758 | 42.46144 | 34732 ft | 491 kts | 111° |
| 2026-04-27 16:48 | 65.36575 | 42.61692 | 34720 ft | 491 kts | 111° |
| 2026-04-27 16:48 | 65.34396 | 42.77178 | 34722 ft | 491 kts | 111° |
| 2026-04-27 16:49 | 65.31132 | 43.00552 | 34696 ft | 491 kts | 111° |
| 2026-04-27 16:49 | 65.28942 | 43.16012 | 34700 ft | 490 kts | 111° |
| 2026-04-27 16:50 | 65.26738 | 43.31417 | 34705 ft | 489 kts | 112° |
| 2026-04-27 16:50 | 65.24517 | 43.46787 | 34705 ft | 489 kts | 112° |
| 2026-04-27 16:51 | 65.22280 | 43.62135 | 34688 ft | 489 kts | 112° |
| 2026-04-27 16:51 | 65.20029 | 43.77444 | 34693 ft | 489 kts | 112° |
| 2026-04-27 16:52 | 65.17760 | 43.92738 | 34675 ft | 489 kts | 112° |
| 2026-04-27 16:52 | 65.15477 | 44.07967 | 34679 ft | 489 kts | 112° |
| 2026-04-27 16:53 | 65.13171 | 44.23204 | 34671 ft | 488 kts | 113° |
| 2026-04-27 16:53 | 65.10847 | 44.38305 | 34669 ft | 480 kts | 113° |
| 2026-04-27 16:54 | 65.08533 | 44.53174 | 34663 ft | 477 kts | 113° |
| 2026-04-27 16:54 | 65.06216 | 44.67925 | 34665 ft | 477 kts | 114° |
| 2026-04-27 16:55 | 65.03885 | 44.82648 | 34654 ft | 476 kts | 114° |
| 2026-04-27 16:55 | 65.01542 | 44.97335 | 34651 ft | 476 kts | 114° |
| 2026-04-27 16:56 | 64.99178 | 45.12041 | 34655 ft | 476 kts | 114° |
| 2026-04-27 16:56 | 64.96803 | 45.26695 | 34652 ft | 476 kts | 114° |
| 2026-04-27 16:57 | 64.94435 | 45.41182 | 34654 ft | 476 kts | 114° |
| 2026-04-27 16:57 | 64.92022 | 45.55825 | 34637 ft | 474 kts | 114° |
| 2026-04-27 16:58 | 64.89654 | 45.70239 | 34641 ft | 475 kts | 113° |
| 2026-04-27 16:58 | 64.87666 | 45.85101 | 34620 ft | 476 kts | 110° |
| 2026-04-27 16:59 | 64.85774 | 46.00093 | 34633 ft | 478 kts | 110° |
| 2026-04-27 16:59 | 64.83861 | 46.15091 | 34621 ft | 479 kts | 110° |
| 2026-04-27 17:00 | 64.80957 | 46.37557 | 34613 ft | 478 kts | 110° |
| 2026-04-27 17:01 | 64.79002 | 46.52491 | 34612 ft | 478 kts | 110° |
| 2026-04-27 17:01 | 64.77379 | 46.64863 | 34612 ft | 477 kts | 110° |
| 2026-04-27 17:02 | 64.75414 | 46.79752 | 34613 ft | 477 kts | 110° |
| 2026-04-27 17:02 | 64.73428 | 46.94608 | 34607 ft | 477 kts | 110° |
| 2026-04-27 17:03 | 64.71426 | 47.09419 | 34606 ft | 477 kts | 111° |
| 2026-04-27 17:03 | 64.69325 | 47.24145 | 34590 ft | 475 kts | 112° |
| 2026-04-27 17:04 | 64.67195 | 47.38753 | 34596 ft | 474 kts | 112° |
| 2026-04-27 17:04 | 64.65056 | 47.53322 | 34583 ft | 475 kts | 112° |
| 2026-04-27 17:05 | 64.62890 | 47.67969 | 34597 ft | 478 kts | 112° |
| 2026-04-27 17:05 | 64.60706 | 47.82639 | 34599 ft | 478 kts | 112° |
| 2026-04-27 17:06 | 64.58508 | 47.97289 | 34584 ft | 478 kts | 112° |
| 2026-04-27 17:06 | 64.56305 | 48.11857 | 34575 ft | 476 kts | 113° |
| 2026-04-27 17:07 | 64.54087 | 48.26382 | 34583 ft | 476 kts | 113° |
| 2026-04-27 17:07 | 64.51857 | 48.40863 | 34583 ft | 475 kts | 113° |
| 2026-04-27 17:08 | 64.49615 | 48.55309 | 34583 ft | 475 kts | 113° |
| 2026-04-27 17:08 | 64.47352 | 48.69760 | 34580 ft | 475 kts | 113° |
| 2026-04-27 17:09 | 64.45078 | 48.84161 | 34588 ft | 475 kts | 114° |
| 2026-04-27 17:09 | 64.42752 | 48.98494 | 34587 ft | 474 kts | 114° |
| 2026-04-27 17:10 | 64.40403 | 49.12782 | 34588 ft | 474 kts | 114° |
| 2026-04-27 17:10 | 64.38034 | 49.27140 | 33942 ft | 478 kts | 114° |
| 2026-04-27 17:10 | 64.36870 | 49.34366 | 33150 ft | 481 kts | 114° |
| 2026-04-27 17:11 | 64.35709 | 49.41615 | 32507 ft | 480 kts | 114° |
| 2026-04-27 17:11 | 64.33404 | 49.55909 | 31303 ft | 476 kts | 114° |
| 2026-04-27 17:11 | 64.32238 | 49.63075 | 30708 ft | 475 kts | 115° |
| 2026-04-27 17:12 | 64.29899 | 49.77332 | 29428 ft | 474 kts | 115° |
| 2026-04-27 17:12 | 64.28725 | 49.84437 | 28702 ft | 474 kts | 115° |
| 2026-04-27 17:12 | 64.27549 | 49.91521 | 28015 ft | 473 kts | 115° |
| 2026-04-27 17:13 | 64.26373 | 49.98581 | 27364 ft | 471 kts | 115° |
| 2026-04-27 17:13 | 64.25206 | 50.05566 | 26970 ft | 469 kts | 115° |
| 2026-04-27 17:13 | 64.24035 | 50.12548 | 26555 ft | 466 kts | 115° |
| 2026-04-27 17:13 | 64.22871 | 50.19466 | 26128 ft | 462 kts | 115° |
| 2026-04-27 17:14 | 64.21710 | 50.26346 | 25679 ft | 459 kts | 115° |
| 2026-04-27 17:14 | 64.20556 | 50.33152 | 25246 ft | 455 kts | 115° |
| 2026-04-27 17:14 | 64.19408 | 50.39898 | 24812 ft | 451 kts | 115° |
| 2026-04-27 17:14 | 64.18267 | 50.46585 | 24372 ft | 448 kts | 116° |
| 2026-04-27 17:15 | 64.17129 | 50.53220 | 23920 ft | 444 kts | 116° |
| 2026-04-27 17:15 | 64.16000 | 50.59788 | 23501 ft | 440 kts | 116° |
| 2026-04-27 17:15 | 64.14876 | 50.66303 | 23036 ft | 437 kts | 116° |
| 2026-04-27 17:15 | 64.13760 | 50.72746 | 22543 ft | 432 kts | 116° |
| 2026-04-27 17:16 | 64.12654 | 50.79116 | 22081 ft | 427 kts | 116° |
| 2026-04-27 17:16 | 64.11558 | 50.85414 | 21624 ft | 423 kts | 116° |
| 2026-04-27 17:16 | 64.10471 | 50.91628 | 21180 ft | 419 kts | 116° |
| 2026-04-27 17:16 | 64.09387 | 50.97802 | 20743 ft | 416 kts | 116° |
| 2026-04-27 17:17 | 64.08312 | 51.03909 | 20309 ft | 412 kts | 116° |
| 2026-04-27 17:17 | 64.07234 | 51.10012 | 19872 ft | 409 kts | 116° |
| 2026-04-27 17:17 | 64.06170 | 51.16021 | 19444 ft | 406 kts | 116° |
| 2026-04-27 17:18 | 64.04059 | 51.27886 | 18588 ft | 400 kts | 116° |
| 2026-04-27 17:18 | 64.03010 | 51.33755 | 18139 ft | 397 kts | 116° |
| 2026-04-27 17:18 | 64.01968 | 51.39566 | 17705 ft | 394 kts | 116° |
| 2026-04-27 17:18 | 64.00923 | 51.45379 | 17258 ft | 391 kts | 116° |
| 2026-04-27 17:19 | 63.99893 | 51.51093 | 16843 ft | 388 kts | 116° |
| 2026-04-27 17:19 | 63.98866 | 51.56770 | 16412 ft | 385 kts | 116° |
| 2026-04-27 17:19 | 63.97860 | 51.62317 | 15998 ft | 383 kts | 116° |
| 2026-04-27 17:19 | 63.96845 | 51.67901 | 15567 ft | 380 kts | 116° |
| 2026-04-27 17:20 | 63.95832 | 51.73452 | 15142 ft | 378 kts | 116° |
| 2026-04-27 17:20 | 63.94819 | 51.78985 | 14720 ft | 377 kts | 116° |
| 2026-04-27 17:20 | 63.93806 | 51.84507 | 14299 ft | 375 kts | 116° |
| 2026-04-27 17:20 | 63.92793 | 51.90014 | 13874 ft | 374 kts | 117° |
| 2026-04-27 17:21 | 63.91789 | 51.95459 | 13432 ft | 372 kts | 117° |
| 2026-04-27 17:21 | 63.90789 | 52.00862 | 12980 ft | 370 kts | 117° |
| 2026-04-27 17:21 | 63.89791 | 52.06240 | 12556 ft | 368 kts | 117° |
| 2026-04-27 17:21 | 63.88798 | 52.11572 | 12117 ft | 365 kts | 117° |
| 2026-04-27 17:22 | 63.87811 | 52.16856 | 11711 ft | 362 kts | 117° |
| 2026-04-27 17:22 | 63.86833 | 52.22089 | 11298 ft | 359 kts | 117° |
| 2026-04-27 17:22 | 63.85873 | 52.27310 | 10881 ft | 357 kts | 115° |
| 2026-04-27 17:22 | 63.85084 | 52.32875 | 10432 ft | 358 kts | 108° |
| 2026-04-27 17:23 | 63.84600 | 52.38333 | 10306 ft | 347 kts | 102° |
| 2026-04-27 17:23 | 63.84271 | 52.43667 | 10201 ft | 335 kts | 101° |
| 2026-04-27 17:23 | 63.83974 | 52.48808 | 10093 ft | 323 kts | 101° |
| 2026-04-27 17:23 | 63.83725 | 52.53127 | 10000 ft | 312 kts | 102° |
| 2026-04-27 17:24 | 63.83444 | 52.57919 | 9887 ft | 301 kts | 102° |
| 2026-04-27 17:24 | 63.83168 | 52.62534 | 9821 ft | 290 kts | 102° |
| 2026-04-27 17:24 | 63.82896 | 52.66995 | 9731 ft | 282 kts | 102° |
| 2026-04-27 17:24 | 63.82626 | 52.71376 | 9507 ft | 281 kts | 103° |
| 2026-04-27 17:25 | 63.82352 | 52.75772 | 9158 ft | 281 kts | 103° |
| 2026-04-27 17:25 | 63.82077 | 52.80169 | 8841 ft | 280 kts | 103° |
| 2026-04-27 17:25 | 63.81805 | 52.84527 | 8551 ft | 279 kts | 103° |
| 2026-04-27 17:25 | 63.81533 | 52.88865 | 8245 ft | 277 kts | 103° |
| 2026-04-27 17:26 | 63.81262 | 52.93164 | 7956 ft | 275 kts | 103° |
| 2026-04-27 17:26 | 63.80995 | 52.97389 | 7682 ft | 273 kts | 103° |
| 2026-04-27 17:26 | 63.80719 | 53.01703 | 7406 ft | 272 kts | 104° |
| 2026-04-27 17:26 | 63.80452 | 53.05871 | 7134 ft | 270 kts | 104° |
| 2026-04-27 17:27 | 63.80181 | 53.10066 | 6848 ft | 268 kts | 104° |
| 2026-04-27 17:27 | 63.79912 | 53.14238 | 6575 ft | 267 kts | 104° |
| 2026-04-27 17:27 | 63.79643 | 53.18387 | 6300 ft | 265 kts | 104° |
| 2026-04-27 17:27 | 63.79376 | 53.22498 | 6027 ft | 263 kts | 104° |
| 2026-04-27 17:28 | 63.79107 | 53.26594 | 5740 ft | 261 kts | 105° |
| 2026-04-27 17:28 | 63.78837 | 53.30672 | 5465 ft | 260 kts | 105° |
| 2026-04-27 17:28 | 63.78319 | 53.38454 | 4937 ft | 257 kts | 105° |
| 2026-04-27 17:29 | 63.78051 | 53.42455 | 4658 ft | 256 kts | 105° |
| 2026-04-27 17:29 | 63.77782 | 53.46419 | 4375 ft | 254 kts | 105° |
| 2026-04-27 17:29 | 63.77513 | 53.50370 | 4100 ft | 254 kts | 105° |
| 2026-04-27 17:29 | 63.77245 | 53.54307 | 3832 ft | 252 kts | 105° |
| 2026-04-27 17:30 | 63.76977 | 53.58210 | 3559 ft | 251 kts | 106° |
| 2026-04-27 17:30 | 63.76455 | 53.65896 | 3301 ft | 237 kts | 106° |
| 2026-04-27 17:30 | 63.76189 | 53.69457 | 3284 ft | 222 kts | 110° |
| 2026-04-27 17:31 | 63.75809 | 53.72811 | 3260 ft | 220 kts | 113° |
| 2026-04-27 17:31 | 63.75408 | 53.76101 | 3128 ft | 212 kts | 114° |
| 2026-04-27 17:31 | 63.75022 | 53.79267 | 3006 ft | 205 kts | 114° |
| 2026-04-27 17:31 | 63.74641 | 53.82396 | 2772 ft | 197 kts | 114° |
| 2026-04-27 17:32 | 63.74278 | 53.85347 | 2461 ft | 191 kts | 114° |
| 2026-04-27 17:32 | 63.72774 | 53.89042 | 2044 ft | 154 kts | 170° |
| 2026-04-27 17:32 | 63.71843 | 53.89191 | 2058 ft | 151 kts | 181° |
| 2026-04-27 17:33 | 63.70804 | 53.88956 | 2043 ft | 151 kts | 187° |
| 2026-04-27 17:33 | 63.69772 | 53.88497 | 2035 ft | 151 kts | 190° |
| 2026-04-27 17:33 | 63.68751 | 53.87932 | 2038 ft | 151 kts | 191° |
| 2026-04-27 17:33 | 63.67736 | 53.87320 | 2039 ft | 151 kts | 192° |
| 2026-04-27 17:34 | 63.66718 | 53.86689 | 2038 ft | 151 kts | 192° |
| 2026-04-27 17:34 | 63.65706 | 53.86057 | 2029 ft | 151 kts | 192° |
| 2026-04-27 17:34 | 63.64674 | 53.85412 | 1874 ft | 151 kts | 192° |
| 2026-04-27 17:34 | 63.63656 | 53.84777 | 1685 ft | 150 kts | 192° |
| 2026-04-27 17:35 | 63.62632 | 53.84136 | 1458 ft | 149 kts | 194° |
| 2026-04-27 17:35 | 63.61882 | 53.82453 | 1085 ft | 167 kts | 228° |
| 2026-04-27 17:35 | 63.61378 | 53.81030 | 995 ft | 154 kts | 218° |
| 2026-04-27 17:35 | 63.60443 | 53.80195 | 1389 ft | 146 kts | 180° |
| 2026-04-27 17:36 | 63.59424 | 53.80366 | 1935 ft | 157 kts | 171° |
| 2026-04-27 17:36 | 63.58245 | 53.80869 | 1734 ft | 186 kts | 169° |
| 2026-04-27 17:36 | 63.56916 | 53.81050 | 1133 ft | 202 kts | 194° |
| 2026-04-27 17:36 | 63.55553 | 53.79881 | 1056 ft | 208 kts | 201° |
| 2026-04-27 17:37 | 63.54236 | 53.78490 | 1489 ft | 207 kts | 204° |
| 2026-04-27 17:37 | 63.52960 | 53.77156 | 1789 ft | 201 kts | 186° |
| 2026-04-27 17:37 | 63.51599 | 53.77530 | 2038 ft | 198 kts | 156° |
| 2026-04-27 17:37 | 63.50503 | 53.79393 | 2035 ft | 198 kts | 137° |
| 2026-04-27 17:38 | 63.49892 | 53.82235 | 2021 ft | 216 kts | 103° |
| 2026-04-27 17:38 | 63.50142 | 53.85659 | 2025 ft | 234 kts | 70° |
| 2026-04-27 17:38 | 63.51218 | 53.88400 | 2035 ft | 247 kts | 36° |
| 2026-04-27 17:38 | 63.52890 | 53.89823 | 2046 ft | 254 kts | 21° |
| 2026-04-27 17:39 | 63.54542 | 53.91231 | 2043 ft | 252 kts | 27° |
| 2026-04-27 17:39 | 63.56111 | 53.92825 | 2044 ft | 250 kts | 28° |
| 2026-04-27 17:39 | 63.57688 | 53.94486 | 2045 ft | 249 kts | 28° |
| 2026-04-27 17:39 | 63.59262 | 53.96126 | 2041 ft | 250 kts | 25° |
| 2026-04-27 17:40 | 63.60971 | 53.96752 | 2022 ft | 252 kts | 351° |
| 2026-04-27 17:40 | 63.62575 | 53.95372 | 2038 ft | 247 kts | 317° |
| 2026-04-27 17:40 | 63.63611 | 53.92440 | 2045 ft | 236 kts | 284° |
| 2026-04-27 17:40 | 63.64077 | 53.88941 | 2052 ft | 232 kts | 277° |
| 2026-04-27 17:41 | 63.64590 | 53.85477 | 2038 ft | 239 kts | 297° |
| 2026-04-27 17:41 | 63.64928 | 53.84450 | 2025 ft | 245 kts | 311° |